createdAt,value
2023-05-14T04:46:41.372Z,11.20
2023-05-14T04:49:10.726Z,11.34
2023-05-14T04:51:37.496Z,11.05
2023-05-14T04:54:04.418Z,11.40
2023-05-14T04:56:33.462Z,11.31
2023-05-14T04:59:00.153Z,11.37
2023-05-14T05:01:27.110Z,10.80
2023-05-14T05:03:53.891Z,10.93
2023-05-14T05:06:20.641Z,10.76
2023-05-14T05:08:47.366Z,11.49
2023-05-14T05:11:14.048Z,10.95
2023-05-14T05:13:43.788Z,10.90
2023-05-14T05:16:10.511Z,11.20
2023-05-14T05:18:37.764Z,10.67
2023-05-14T05:21:07.041Z,10.62
2023-05-14T05:23:33.748Z,10.99
2023-05-14T05:26:00.459Z,11.33
2023-05-14T05:28:27.257Z,11.27
2023-05-14T05:30:53.993Z,11.45
2023-05-14T05:33:20.902Z,11.49
2023-05-14T05:35:48.342Z,11.44
2023-05-14T05:38:15.675Z,11.41
2023-05-14T05:40:42.439Z,11.44
2023-05-14T05:43:09.081Z,11.50
2023-05-14T05:45:35.753Z,11.47
2023-05-14T05:48:04.029Z,11.61
2023-05-14T05:50:31.895Z,11.66
2023-05-14T05:52:59.375Z,11.60
2023-05-14T05:55:26.147Z,11.50
2023-05-14T05:57:52.892Z,11.64
2023-05-14T06:00:20.542Z,11.69
2023-05-14T06:02:47.263Z,11.86
2023-05-14T06:05:14.105Z,11.91
2023-05-14T06:07:52.161Z,11.70
2023-05-14T06:10:19.890Z,11.51
2023-05-14T06:12:46.572Z,11.98
2023-05-14T06:15:13.333Z,11.84
2023-05-14T06:17:40.235Z,11.82
2023-05-14T06:20:08.004Z,12.24
2023-05-14T06:22:34.889Z,12.26
2023-05-14T06:25:01.762Z,11.92
2023-05-14T06:27:28.473Z,11.97
2023-05-14T06:29:55.343Z,11.96
2023-05-14T06:32:22.172Z,12.10
2023-05-14T06:34:49.053Z,12.60
2023-05-14T06:37:15.733Z,12.71
2023-05-14T06:39:50.068Z,12.86
2023-05-14T06:42:17.482Z,12.93
2023-05-14T06:44:45.057Z,12.94
2023-05-14T06:47:11.788Z,12.93
2023-05-14T06:49:41.013Z,12.52
2023-05-14T06:52:08.159Z,13.07
2023-05-14T06:54:34.990Z,12.99
2023-05-14T06:57:01.743Z,12.84
2023-05-14T06:59:29.514Z,12.58
2023-05-14T07:01:56.349Z,12.52
2023-05-14T07:04:23.137Z,13.19
2023-05-14T07:06:49.868Z,12.56
2023-05-14T07:09:16.733Z,13.44
2023-05-14T07:11:43.436Z,13.26
2023-05-14T07:14:10.152Z,12.95
2023-05-14T07:16:37.234Z,13.56
2023-05-14T07:19:04.063Z,13.56
2023-05-14T07:21:31.787Z,13.47
2023-05-14T07:23:58.526Z,13.78
2023-05-14T07:26:25.292Z,13.83
2023-05-14T07:28:52.060Z,13.74
2023-05-14T07:31:18.654Z,13.85
2023-05-14T07:33:45.439Z,13.91
2023-05-14T07:36:12.411Z,13.55
2023-05-14T07:38:39.259Z,14.04
2023-05-14T07:41:06.154Z,14.01
2023-05-14T07:43:32.934Z,14.18
2023-05-14T07:45:59.676Z,14.18
2023-05-14T07:48:26.701Z,14.26
2023-05-14T07:50:53.775Z,14.52
2023-05-14T07:53:20.601Z,14.63
2023-05-14T07:55:48.832Z,14.49
2023-05-14T07:58:18.148Z,14.43
2023-05-14T08:00:44.912Z,14.14
2023-05-14T08:03:12.171Z,14.43
2023-05-14T08:05:38.986Z,14.02
2023-05-14T08:08:05.797Z,13.78
2023-05-14T08:10:35.000Z,13.68
2023-05-14T08:13:01.922Z,13.75
2023-05-14T08:15:33.500Z,13.56
2023-05-14T08:18:03.670Z,13.79
2023-05-14T08:20:31.176Z,13.41
2023-05-14T08:22:58.279Z,13.89
2023-05-14T08:25:27.299Z,13.84
2023-05-14T08:27:54.252Z,14.04
2023-05-14T08:30:22.190Z,13.96
2023-05-14T08:32:49.023Z,13.72
2023-05-14T08:35:16.275Z,13.64
2023-05-14T08:37:43.062Z,13.27
2023-05-14T08:40:10.192Z,13.89
2023-05-14T08:42:40.766Z,14.08
2023-05-14T08:45:17.136Z,13.49
2023-05-14T08:47:49.352Z,13.68
2023-05-14T08:50:16.718Z,13.43
2023-05-14T08:52:44.069Z,13.81
2023-05-14T08:55:12.312Z,13.63
2023-05-14T08:57:39.424Z,13.75
2023-05-14T09:00:11.907Z,13.59
2023-05-14T09:02:40.882Z,14.16
2023-05-14T09:05:09.274Z,14.23
2023-05-14T09:07:36.621Z,13.86
2023-05-14T09:10:04.507Z,13.45
2023-05-14T09:12:31.536Z,13.45
2023-05-14T09:14:58.276Z,13.93
2023-05-14T09:17:27.399Z,14.08
2023-05-14T09:19:54.346Z,13.93
2023-05-14T09:22:21.115Z,13.97
2023-05-14T09:25:02.562Z,14.25
2023-05-14T09:27:30.975Z,14.11
2023-05-14T09:30:09.195Z,14.61
2023-05-14T09:32:38.307Z,14.84
2023-05-14T09:35:12.640Z,15.08
2023-05-14T09:37:42.955Z,15.38
2023-05-14T09:40:14.786Z,15.40
2023-05-14T09:42:42.359Z,15.37
2023-05-14T09:45:10.230Z,15.63
2023-05-14T09:47:39.480Z,16.50
2023-05-14T09:50:07.853Z,16.50
2023-05-14T09:52:38.580Z,16.58
2023-05-14T09:55:06.554Z,16.27
2023-05-14T09:57:34.753Z,16.17
2023-05-14T10:00:09.437Z,16.54
2023-05-14T10:02:38.298Z,15.61
2023-05-14T10:05:07.623Z,16.17
2023-05-14T10:07:42.835Z,16.58
2023-05-14T10:10:15.543Z,16.81
2023-05-14T10:12:46.440Z,16.54
2023-05-14T10:15:19.464Z,16.43
2023-05-14T10:17:50.160Z,16.83
2023-05-14T10:20:17.745Z,17.05
2023-05-14T10:22:44.656Z,16.66
2023-05-14T10:25:12.119Z,17.01
2023-05-14T10:27:39.814Z,17.05
2023-05-14T10:30:12.389Z,17.15
2023-05-14T10:32:41.849Z,17.14
2023-05-14T10:35:25.517Z,17.37
2023-05-14T10:37:52.869Z,17.72
2023-05-14T10:40:23.590Z,17.82
2023-05-14T10:42:50.693Z,17.60
2023-05-14T10:45:18.061Z,17.41
2023-05-14T10:47:47.285Z,18.10
2023-05-14T10:50:16.166Z,17.48
2023-05-14T10:52:44.409Z,17.68
2023-05-14T10:55:16.188Z,17.99
2023-05-14T10:57:45.142Z,18.15
2023-05-14T11:00:18.091Z,17.73
2023-05-14T11:02:46.372Z,17.41
2023-05-14T11:05:17.270Z,17.49
2023-05-14T11:07:45.376Z,17.48
2023-05-14T11:10:15.200Z,17.58
2023-05-14T11:12:44.436Z,17.73
2023-05-14T11:15:13.317Z,17.66
2023-05-14T11:17:44.209Z,17.48
2023-05-14T11:20:17.801Z,17.76
2023-05-14T11:22:46.754Z,17.55
2023-05-14T11:25:17.901Z,17.90
2023-05-14T11:27:47.241Z,18.27
2023-05-14T11:30:18.997Z,17.89
2023-05-14T11:32:47.611Z,17.60
2023-05-14T11:35:18.262Z,17.85
2023-05-14T11:37:53.952Z,18.12
2023-05-14T11:40:21.212Z,18.20
2023-05-14T11:42:53.782Z,18.44
2023-05-14T11:45:30.094Z,18.02
2023-05-14T11:47:56.924Z,17.50
2023-05-14T11:50:23.870Z,17.51
2023-05-14T11:52:51.016Z,17.31
2023-05-14T11:55:21.024Z,17.21
2023-05-14T11:57:48.882Z,17.10
2023-05-14T12:00:22.239Z,17.23
2023-05-14T12:02:49.807Z,17.43
2023-05-14T12:05:16.811Z,17.27
2023-05-14T12:07:47.372Z,17.20
2023-05-14T12:10:14.016Z,17.23
2023-05-14T12:12:40.863Z,17.49
2023-05-14T12:15:14.103Z,17.31
2023-05-14T12:17:49.295Z,17.27
2023-05-14T12:20:15.955Z,16.68
2023-05-14T12:22:42.638Z,16.97
2023-05-14T12:25:13.763Z,16.82
2023-05-14T12:27:41.422Z,16.99
2023-05-14T12:32:42.770Z,16.73
2023-05-14T12:35:10.125Z,16.77
2023-05-14T12:37:39.168Z,17.01
2023-05-14T12:40:20.998Z,16.98
2023-05-14T12:42:50.328Z,16.92
2023-05-14T12:45:17.776Z,16.57
2023-05-14T12:47:46.345Z,16.78
2023-05-14T12:50:27.508Z,16.88
2023-05-14T12:52:55.331Z,16.66
2023-05-14T12:55:22.409Z,16.90
2023-05-14T12:57:52.075Z,17.02
2023-05-14T13:00:19.676Z,16.80
2023-05-14T13:02:46.719Z,16.61
2023-05-14T13:05:14.427Z,16.87
2023-05-14T13:07:42.751Z,16.83
2023-05-14T13:10:10.360Z,17.47
2023-05-14T13:12:38.888Z,18.35
2023-05-14T13:15:06.841Z,18.99
2023-05-14T13:17:33.912Z,19.38
2023-05-14T13:20:00.864Z,19.38
2023-05-14T13:22:27.877Z,19.52
2023-05-14T13:24:54.899Z,19.25
2023-05-14T13:27:22.001Z,19.52
2023-05-14T13:29:48.998Z,19.48
2023-05-14T13:32:15.778Z,19.23
2023-05-14T13:34:44.011Z,18.89
2023-05-14T13:37:11.183Z,19.44
2023-05-14T13:39:39.396Z,19.07
2023-05-14T13:42:10.735Z,19.31
2023-05-14T13:44:40.206Z,18.76
2023-05-14T13:47:07.152Z,18.79
2023-05-14T13:49:33.881Z,18.64
2023-05-14T13:52:00.967Z,18.44
2023-05-14T13:54:27.678Z,18.38
2023-05-14T13:56:54.348Z,18.19
2023-05-14T13:59:21.296Z,17.84
2023-05-14T14:01:51.531Z,18.05
2023-05-14T14:04:19.961Z,17.83
2023-05-14T14:06:47.020Z,18.09
2023-05-14T14:09:16.735Z,18.22
2023-05-14T14:11:46.358Z,18.66
2023-05-14T14:14:15.752Z,19.03
2023-05-14T14:16:43.021Z,19.20
2023-05-14T14:19:19.440Z,19.48
2023-05-14T14:21:46.598Z,19.22
2023-05-14T14:24:13.783Z,18.93
2023-05-14T14:26:43.106Z,18.55
2023-05-14T14:29:10.321Z,18.25
2023-05-14T14:31:37.543Z,18.29
2023-05-14T14:34:04.383Z,18.37
2023-05-14T14:36:31.753Z,18.53
2023-05-14T14:39:18.982Z,18.15
2023-05-14T14:41:45.914Z,18.09
2023-05-14T14:44:12.863Z,17.90
2023-05-14T14:46:39.612Z,18.07
2023-05-14T14:49:08.960Z,18.05
2023-05-14T14:51:36.099Z,17.80
2023-05-14T14:54:05.462Z,17.89
2023-05-14T14:56:32.669Z,17.96
2023-05-14T14:59:01.664Z,17.60
2023-05-14T15:01:28.606Z,17.65
2023-05-14T15:03:55.174Z,17.80
2023-05-14T15:06:21.981Z,17.68
2023-05-14T15:08:48.881Z,17.45
2023-05-14T15:11:15.792Z,17.51
2023-05-14T15:13:43.120Z,17.59
2023-05-14T15:16:10.093Z,17.31
2023-05-14T15:18:39.465Z,17.59
2023-05-14T15:21:06.349Z,18.06
2023-05-14T15:23:33.282Z,18.18
2023-05-14T15:26:00.139Z,18.38
2023-05-14T15:28:27.056Z,18.58
2023-05-14T15:30:54.446Z,18.73
2023-05-14T15:33:21.365Z,18.55
2023-05-14T15:35:48.490Z,18.88
2023-05-14T15:38:15.599Z,18.40
2023-05-14T15:40:42.635Z,18.11
2023-05-14T15:43:09.696Z,18.07
2023-05-14T15:45:36.639Z,18.08
2023-05-14T15:48:03.961Z,17.93
2023-05-14T15:50:31.219Z,17.82
2023-05-14T15:52:58.387Z,18.00
2023-05-14T15:55:25.112Z,17.65
2023-05-14T15:57:54.258Z,17.96
2023-05-14T16:00:22.768Z,17.76
2023-05-14T16:02:50.023Z,17.83
2023-05-14T16:05:19.559Z,17.79
2023-05-14T16:07:49.886Z,17.61
2023-05-14T16:10:20.803Z,17.78
2023-05-14T16:12:53.754Z,17.43
2023-05-14T16:15:27.123Z,17.84
2023-05-14T16:17:57.478Z,17.43
2023-05-14T16:20:35.186Z,16.91
2023-05-14T16:23:07.767Z,17.79
2023-05-14T16:25:34.931Z,17.71
2023-05-14T16:28:02.363Z,17.35
2023-05-14T16:30:29.542Z,17.24
2023-05-14T16:32:58.658Z,16.76
2023-05-14T16:35:25.692Z,17.14
2023-05-14T16:37:52.393Z,17.29
2023-05-14T16:40:19.730Z,16.82
2023-05-14T16:42:49.136Z,17.12
2023-05-14T16:45:16.653Z,17.50
2023-05-14T16:47:43.342Z,17.14
2023-05-14T16:50:10.385Z,17.24
2023-05-14T16:52:36.994Z,17.20
2023-05-14T16:55:04.175Z,16.99
2023-05-14T16:57:30.900Z,16.99
2023-05-14T16:59:58.266Z,16.99
2023-05-14T17:02:27.705Z,17.20
2023-05-14T17:05:15.996Z,17.16
2023-05-14T17:08:05.123Z,17.16
2023-05-14T17:11:43.536Z,17.18
2023-05-14T17:14:32.218Z,17.18
2023-05-14T17:17:36.482Z,17.09
2023-05-14T17:20:52.710Z,16.89
2023-05-14T17:23:42.613Z,16.86
2023-05-14T17:26:38.730Z,16.85
2023-05-14T17:29:30.249Z,16.79
2023-05-14T17:32:20.946Z,16.64
2023-05-14T17:35:11.610Z,16.61
2023-05-14T17:37:59.952Z,16.76
2023-05-14T17:40:48.062Z,16.79
2023-05-14T17:43:35.481Z,16.99
2023-05-14T17:46:23.518Z,16.88
2023-05-14T17:49:11.881Z,16.84
2023-05-14T17:51:59.031Z,16.61
2023-05-14T17:54:46.072Z,16.90
2023-05-14T17:57:33.048Z,16.72
2023-05-14T18:00:20.307Z,16.74
2023-05-14T18:03:07.882Z,16.68
2023-05-14T18:05:54.991Z,16.66
2023-05-14T18:08:42.525Z,16.49
2023-05-14T18:11:33.769Z,16.66
2023-05-14T18:14:20.855Z,16.49
2023-05-14T18:17:08.000Z,16.29
2023-05-14T18:19:54.936Z,16.40
2023-05-14T18:22:44.891Z,16.32
2023-05-14T18:25:31.830Z,16.19
2023-05-14T18:28:19.018Z,16.30
2023-05-14T18:31:06.266Z,16.33
2023-05-14T18:33:53.419Z,16.16
2023-05-14T18:36:40.982Z,16.16
2023-05-14T18:39:28.087Z,16.20
2023-05-14T18:42:16.517Z,16.23
2023-05-14T18:45:04.524Z,16.26
2023-05-14T18:47:52.074Z,16.01
2023-05-14T18:50:39.606Z,16.21
2023-05-14T18:53:27.250Z,16.29
2023-05-14T18:56:14.390Z,16.02
2023-05-14T18:59:01.300Z,16.11
2023-05-14T19:01:48.495Z,15.96
2023-05-14T19:04:47.847Z,16.11
2023-05-14T19:07:38.962Z,16.16
2023-05-14T19:10:25.870Z,16.01
2023-05-14T19:13:13.135Z,16.08
2023-05-14T19:16:00.750Z,16.01
2023-05-14T19:18:48.032Z,15.82
2023-05-14T19:21:35.056Z,15.62
2023-05-14T19:24:22.158Z,15.75
2023-05-14T19:27:09.208Z,15.80
2023-05-14T19:30:00.965Z,15.85
2023-05-14T19:32:48.163Z,15.71
2023-05-14T19:35:39.703Z,15.65
2023-05-14T19:38:27.990Z,15.63
